sensor_id;sensor_type;location;lat;lon;timestamp;P1;durP1;ratioP1;P2;durP2;ratioP2
72127;SDS011;60000;51.030;7.024;2024-03-08T00:01:54;12.63;;;6.30;;
72127;SDS011;60000;51.030;7.024;2024-03-08T00:04:20;14.00;;;6.10;;
72127;SDS011;60000;51.030;7.024;2024-03-08T00:06:45;11.97;;;5.47;;
72127;SDS011;60000;51.030;7.024;2024-03-08T00:09:11;10.95;;;5.20;;
72127;SDS011;60000;51.030;7.024;2024-03-08T00:11:37;10.63;;;4.45;;
72127;SDS011;60000;51.030;7.024;2024-03-08T00:14:02;10.73;;;4.77;;
72127;SDS011;60000;51.030;7.024;2024-03-08T00:16:31;11.13;;;5.40;;
72127;SDS011;60000;51.030;7.024;2024-03-08T00:18:57;9.43;;;4.63;;
72127;SDS011;60000;51.030;7.024;2024-03-08T00:21:23;11.25;;;5.60;;
72127;SDS011;60000;51.030;7.024;2024-03-08T00:23:48;11.57;;;5.90;;
72127;SDS011;60000;51.030;7.024;2024-03-08T00:26:13;13.70;;;6.70;;
72127;SDS011;60000;51.030;7.024;2024-03-08T00:28:38;14.43;;;7.40;;
72127;SDS011;60000;51.030;7.024;2024-03-08T00:31:04;14.03;;;6.40;;
72127;SDS011;60000;51.030;7.024;2024-03-08T00:33:29;14.10;;;6.90;;
72127;SDS011;60000;51.030;7.024;2024-03-08T00:35:54;14.10;;;7.43;;
72127;SDS011;60000;51.030;7.024;2024-03-08T00:38:19;14.70;;;6.67;;
72127;SDS011;60000;51.030;7.024;2024-03-08T00:40:45;14.30;;;7.10;;
72127;SDS011;60000;51.030;7.024;2024-03-08T00:43:10;13.47;;;6.80;;
72127;SDS011;60000;51.030;7.024;2024-03-08T00:45:36;14.60;;;7.00;;
72127;SDS011;60000;51.030;7.024;2024-03-08T00:48:02;18.40;;;7.80;;
72127;SDS011;60000;51.030;7.024;2024-03-08T00:50:28;15.82;;;8.15;;
72127;SDS011;60000;51.030;7.024;2024-03-08T00:52:53;16.40;;;8.60;;
72127;SDS011;60000;51.030;7.024;2024-03-08T00:55:22;17.63;;;8.97;;
72127;SDS011;60000;51.030;7.024;2024-03-08T00:57:47;19.60;;;8.73;;
72127;SDS011;60000;51.030;7.024;2024-03-08T01:00:12;20.10;;;9.17;;
72127;SDS011;60000;51.030;7.024;2024-03-08T01:02:38;18.77;;;8.90;;
72127;SDS011;60000;51.030;7.024;2024-03-08T01:05:05;18.13;;;8.88;;
72127;SDS011;60000;51.030;7.024;2024-03-08T01:07:32;17.73;;;8.00;;
72127;SDS011;60000;51.030;7.024;2024-03-08T01:09:59;18.00;;;8.35;;
72127;SDS011;60000;51.030;7.024;2024-03-08T01:12:25;18.15;;;8.50;;
72127;SDS011;60000;51.030;7.024;2024-03-08T01:14:51;17.17;;;7.70;;
72127;SDS011;60000;51.030;7.024;2024-03-08T01:17:16;18.63;;;9.17;;
72127;SDS011;60000;51.030;7.024;2024-03-08T01:19:42;17.30;;;8.80;;
72127;SDS011;60000;51.030;7.024;2024-03-08T01:22:09;17.45;;;8.25;;
72127;SDS011;60000;51.030;7.024;2024-03-08T01:24:35;22.27;;;9.15;;
72127;SDS011;60000;51.030;7.024;2024-03-08T01:27:03;19.50;;;9.67;;
72127;SDS011;60000;51.030;7.024;2024-03-08T01:29:28;19.52;;;9.70;;
72127;SDS011;60000;51.030;7.024;2024-03-08T01:31:57;17.73;;;8.20;;
72127;SDS011;60000;51.030;7.024;2024-03-08T01:34:23;20.27;;;9.45;;
72127;SDS011;60000;51.030;7.024;2024-03-08T01:36:48;18.63;;;8.73;;
72127;SDS011;60000;51.030;7.024;2024-03-08T01:39:14;20.40;;;9.47;;
72127;SDS011;60000;51.030;7.024;2024-03-08T01:41:39;18.75;;;9.20;;
72127;SDS011;60000;51.030;7.024;2024-03-08T01:44:05;17.90;;;8.37;;
72127;SDS011;60000;51.030;7.024;2024-03-08T01:46:32;19.83;;;8.52;;
72127;SDS011;60000;51.030;7.024;2024-03-08T01:48:58;17.65;;;8.77;;
72127;SDS011;60000;51.030;7.024;2024-03-08T01:51:25;18.45;;;8.50;;
72127;SDS011;60000;51.030;7.024;2024-03-08T01:53:51;18.10;;;8.17;;
72127;SDS011;60000;51.030;7.024;2024-03-08T01:56:16;15.82;;;7.57;;
72127;SDS011;60000;51.030;7.024;2024-03-08T01:58:43;19.67;;;9.07;;
72127;SDS011;60000;51.030;7.024;2024-03-08T02:01:09;18.65;;;8.93;;
72127;SDS011;60000;51.030;7.024;2024-03-08T02:03:36;17.98;;;8.90;;
72127;SDS011;60000;51.030;7.024;2024-03-08T02:06:01;21.40;;;9.70;;
72127;SDS011;60000;51.030;7.024;2024-03-08T02:08:26;22.30;;;9.90;;
72127;SDS011;60000;51.030;7.024;2024-03-08T02:10:52;20.83;;;9.57;;
72127;SDS011;60000;51.030;7.024;2024-03-08T02:13:17;21.87;;;10.90;;
72127;SDS011;60000;51.030;7.024;2024-03-08T02:15:55;21.40;;;10.33;;
72127;SDS011;60000;51.030;7.024;2024-03-08T02:18:24;18.08;;;8.55;;
72127;SDS011;60000;51.030;7.024;2024-03-08T02:20:50;18.33;;;8.97;;
72127;SDS011;60000;51.030;7.024;2024-03-08T02:23:17;20.00;;;8.90;;
72127;SDS011;60000;51.030;7.024;2024-03-08T02:25:43;17.85;;;8.48;;
72127;SDS011;60000;51.030;7.024;2024-03-08T02:28:11;17.93;;;8.07;;
72127;SDS011;60000;51.030;7.024;2024-03-08T02:30:38;22.23;;;9.95;;
72127;SDS011;60000;51.030;7.024;2024-03-08T02:33:04;20.10;;;9.00;;
72127;SDS011;60000;51.030;7.024;2024-03-08T02:35:30;20.90;;;9.97;;
72127;SDS011;60000;51.030;7.024;2024-03-08T02:37:55;17.98;;;8.95;;
72127;SDS011;60000;51.030;7.024;2024-03-08T02:40:20;17.20;;;8.37;;
72127;SDS011;60000;51.030;7.024;2024-03-08T02:42:47;17.00;;;8.23;;
72127;SDS011;60000;51.030;7.024;2024-03-08T02:45:12;20.93;;;9.23;;
72127;SDS011;60000;51.030;7.024;2024-03-08T02:47:38;16.00;;;7.97;;
72127;SDS011;60000;51.030;7.024;2024-03-08T02:50:04;18.30;;;9.00;;
72127;SDS011;60000;51.030;7.024;2024-03-08T02:52:32;24.10;;;10.88;;
72127;SDS011;60000;51.030;7.024;2024-03-08T02:55:01;19.77;;;9.63;;
72127;SDS011;60000;51.030;7.024;2024-03-08T02:57:26;18.83;;;9.23;;
72127;SDS011;60000;51.030;7.024;2024-03-08T02:59:53;18.67;;;8.17;;
72127;SDS011;60000;51.030;7.024;2024-03-08T03:02:18;17.67;;;8.07;;
72127;SDS011;60000;51.030;7.024;2024-03-08T03:04:44;18.20;;;8.70;;
72127;SDS011;60000;51.030;7.024;2024-03-08T03:07:09;18.40;;;9.03;;
72127;SDS011;60000;51.030;7.024;2024-03-08T03:09:36;16.35;;;7.95;;
72127;SDS011;60000;51.030;7.024;2024-03-08T03:12:01;19.10;;;8.70;;
72127;SDS011;60000;51.030;7.024;2024-03-08T03:14:27;18.05;;;8.23;;
72127;SDS011;60000;51.030;7.024;2024-03-08T03:16:52;18.53;;;8.53;;
72127;SDS011;60000;51.030;7.024;2024-03-08T03:19:19;19.25;;;8.82;;
72127;SDS011;60000;51.030;7.024;2024-03-08T03:21:45;17.42;;;8.52;;
72127;SDS011;60000;51.030;7.024;2024-03-08T03:24:10;18.47;;;8.23;;
72127;SDS011;60000;51.030;7.024;2024-03-08T03:26:36;17.90;;;8.43;;
72127;SDS011;60000;51.030;7.024;2024-03-08T03:29:04;16.08;;;7.35;;
72127;SDS011;60000;51.030;7.024;2024-03-08T03:31:34;19.45;;;8.65;;
72127;SDS011;60000;51.030;7.024;2024-03-08T03:34:00;17.63;;;7.73;;
72127;SDS011;60000;51.030;7.024;2024-03-08T03:36:29;18.00;;;9.10;;
72127;SDS011;60000;51.030;7.024;2024-03-08T03:38:55;18.73;;;9.02;;
72127;SDS011;60000;51.030;7.024;2024-03-08T03:41:30;19.90;;;8.18;;
72127;SDS011;60000;51.030;7.024;2024-03-08T03:43:56;19.00;;;8.93;;
72127;SDS011;60000;51.030;7.024;2024-03-08T03:46:21;20.70;;;9.33;;
72127;SDS011;60000;51.030;7.024;2024-03-08T03:48:46;21.03;;;9.57;;
72127;SDS011;60000;51.030;7.024;2024-03-08T03:51:11;24.13;;;10.30;;
72127;SDS011;60000;51.030;7.024;2024-03-08T03:53:37;19.97;;;9.47;;
72127;SDS011;60000;51.030;7.024;2024-03-08T03:56:02;18.45;;;9.20;;
72127;SDS011;60000;51.030;7.024;2024-03-08T03:58:31;20.20;;;9.07;;
72127;SDS011;60000;51.030;7.024;2024-03-08T04:00:57;21.50;;;9.77;;
72127;SDS011;60000;51.030;7.024;2024-03-08T04:03:22;21.13;;;10.07;;
72127;SDS011;60000;51.030;7.024;2024-03-08T04:05:48;23.17;;;9.70;;
72127;SDS011;60000;51.030;7.024;2024-03-08T04:08:13;19.90;;;9.33;;
72127;SDS011;60000;51.030;7.024;2024-03-08T04:10:39;18.93;;;8.77;;
72127;SDS011;60000;51.030;7.024;2024-03-08T04:13:04;19.52;;;9.45;;
72127;SDS011;60000;51.030;7.024;2024-03-08T04:15:29;19.30;;;8.77;;
72127;SDS011;60000;51.030;7.024;2024-03-08T04:17:55;18.20;;;9.00;;
72127;SDS011;60000;51.030;7.024;2024-03-08T04:20:22;20.13;;;8.85;;
72127;SDS011;60000;51.030;7.024;2024-03-08T04:22:47;19.30;;;9.07;;
72127;SDS011;60000;51.030;7.024;2024-03-08T04:25:14;20.42;;;9.20;;
72127;SDS011;60000;51.030;7.024;2024-03-08T04:27:39;19.67;;;9.35;;
72127;SDS011;60000;51.030;7.024;2024-03-08T04:30:06;21.38;;;9.50;;
72127;SDS011;60000;51.030;7.024;2024-03-08T04:32:34;21.38;;;10.30;;
72127;SDS011;60000;51.030;7.024;2024-03-08T04:35:00;23.93;;;10.30;;
72127;SDS011;60000;51.030;7.024;2024-03-08T04:37:28;21.20;;;9.43;;
72127;SDS011;60000;51.030;7.024;2024-03-08T04:39:57;20.70;;;9.75;;
72127;SDS011;60000;51.030;7.024;2024-03-08T04:42:22;22.08;;;10.02;;
72127;SDS011;60000;51.030;7.024;2024-03-08T04:44:48;21.90;;;9.90;;
72127;SDS011;60000;51.030;7.024;2024-03-08T04:47:13;26.83;;;11.07;;
72127;SDS011;60000;51.030;7.024;2024-03-08T04:49:39;23.07;;;10.70;;
72127;SDS011;60000;51.030;7.024;2024-03-08T04:52:04;23.10;;;10.23;;
72127;SDS011;60000;51.030;7.024;2024-03-08T04:54:30;21.50;;;9.45;;
72127;SDS011;60000;51.030;7.024;2024-03-08T04:56:56;23.90;;;11.07;;
72127;SDS011;60000;51.030;7.024;2024-03-08T04:59:22;20.88;;;9.98;;
72127;SDS011;60000;51.030;7.024;2024-03-08T05:01:47;25.73;;;10.90;;
72127;SDS011;60000;51.030;7.024;2024-03-08T05:04:13;21.90;;;10.13;;
72127;SDS011;60000;51.030;7.024;2024-03-08T05:06:38;23.13;;;10.53;;
72127;SDS011;60000;51.030;7.024;2024-03-08T05:09:04;23.52;;;10.65;;
72127;SDS011;60000;51.030;7.024;2024-03-08T05:11:39;23.13;;;10.80;;
72127;SDS011;60000;51.030;7.024;2024-03-08T05:14:09;21.75;;;10.45;;
72127;SDS011;60000;51.030;7.024;2024-03-08T05:16:47;20.60;;;9.52;;
72127;SDS011;60000;51.030;7.024;2024-03-08T05:19:15;21.35;;;9.73;;
72127;SDS011;60000;51.030;7.024;2024-03-08T05:21:44;23.17;;;11.07;;
72127;SDS011;60000;51.030;7.024;2024-03-08T05:24:13;23.00;;;10.57;;
72127;SDS011;60000;51.030;7.024;2024-03-08T05:26:40;22.13;;;10.75;;
72127;SDS011;60000;51.030;7.024;2024-03-08T05:29:06;27.33;;;11.45;;
72127;SDS011;60000;51.030;7.024;2024-03-08T05:31:36;22.55;;;10.25;;
72127;SDS011;60000;51.030;7.024;2024-03-08T05:34:12;23.33;;;10.90;;
72127;SDS011;60000;51.030;7.024;2024-03-08T05:36:40;22.20;;;9.82;;
72127;SDS011;60000;51.030;7.024;2024-03-08T05:39:05;23.95;;;10.85;;
72127;SDS011;60000;51.030;7.024;2024-03-08T05:41:31;22.50;;;9.60;;
72127;SDS011;60000;51.030;7.024;2024-03-08T05:43:57;21.55;;;9.95;;
72127;SDS011;60000;51.030;7.024;2024-03-08T05:46:22;23.07;;;10.50;;
72127;SDS011;60000;51.030;7.024;2024-03-08T05:48:48;22.27;;;9.83;;
72127;SDS011;60000;51.030;7.024;2024-03-08T05:51:13;23.07;;;10.90;;
72127;SDS011;60000;51.030;7.024;2024-03-08T05:53:38;23.40;;;10.68;;
72127;SDS011;60000;51.030;7.024;2024-03-08T05:56:04;22.83;;;10.33;;
72127;SDS011;60000;51.030;7.024;2024-03-08T05:58:29;24.60;;;10.70;;
72127;SDS011;60000;51.030;7.024;2024-03-08T06:00:57;23.70;;;10.07;;
72127;SDS011;60000;51.030;7.024;2024-03-08T06:03:23;22.40;;;10.33;;
72127;SDS011;60000;51.030;7.024;2024-03-08T06:05:48;19.87;;;9.60;;
72127;SDS011;60000;51.030;7.024;2024-03-08T06:08:14;23.75;;;10.82;;
72127;SDS011;60000;51.030;7.024;2024-03-08T06:10:40;21.13;;;9.80;;
72127;SDS011;60000;51.030;7.024;2024-03-08T06:13:05;24.48;;;10.40;;
72127;SDS011;60000;51.030;7.024;2024-03-08T06:15:31;21.30;;;11.03;;
72127;SDS011;60000;51.030;7.024;2024-03-08T06:17:57;22.48;;;10.50;;
72127;SDS011;60000;51.030;7.024;2024-03-08T06:20:22;20.70;;;10.53;;
72127;SDS011;60000;51.030;7.024;2024-03-08T06:22:51;22.40;;;9.93;;
72127;SDS011;60000;51.030;7.024;2024-03-08T06:25:16;21.93;;;10.00;;
72127;SDS011;60000;51.030;7.024;2024-03-08T06:27:42;22.63;;;10.73;;
72127;SDS011;60000;51.030;7.024;2024-03-08T06:30:08;20.77;;;9.82;;
72127;SDS011;60000;51.030;7.024;2024-03-08T06:32:37;23.20;;;10.65;;
72127;SDS011;60000;51.030;7.024;2024-03-08T06:35:05;24.37;;;10.17;;
72127;SDS011;60000;51.030;7.024;2024-03-08T06:37:35;23.40;;;10.13;;
72127;SDS011;60000;51.030;7.024;2024-03-08T06:40:00;23.45;;;10.68;;
72127;SDS011;60000;51.030;7.024;2024-03-08T06:42:29;22.83;;;10.57;;
72127;SDS011;60000;51.030;7.024;2024-03-08T06:44:58;18.77;;;9.40;;
72127;SDS011;60000;51.030;7.024;2024-03-08T06:47:29;22.52;;;10.70;;
72127;SDS011;60000;51.030;7.024;2024-03-08T06:49:54;23.40;;;9.73;;
72127;SDS011;60000;51.030;7.024;2024-03-08T06:52:20;24.13;;;11.13;;
72127;SDS011;60000;51.030;7.024;2024-03-08T06:54:45;20.33;;;10.00;;
72127;SDS011;60000;51.030;7.024;2024-03-08T06:57:10;22.52;;;10.73;;
72127;SDS011;60000;51.030;7.024;2024-03-08T06:59:36;24.53;;;10.87;;
72127;SDS011;60000;51.030;7.024;2024-03-08T07:02:02;24.17;;;11.23;;
72127;SDS011;60000;51.030;7.024;2024-03-08T07:04:27;25.42;;;11.07;;
72127;SDS011;60000;51.030;7.024;2024-03-08T07:06:55;27.35;;;11.57;;
72127;SDS011;60000;51.030;7.024;2024-03-08T07:09:21;24.13;;;10.73;;
72127;SDS011;60000;51.030;7.024;2024-03-08T07:11:46;24.20;;;9.80;;
72127;SDS011;60000;51.030;7.024;2024-03-08T07:14:12;21.95;;;10.20;;
72127;SDS011;60000;51.030;7.024;2024-03-08T07:16:40;24.37;;;11.73;;
72127;SDS011;60000;51.030;7.024;2024-03-08T07:19:06;22.08;;;10.55;;
72127;SDS011;60000;51.030;7.024;2024-03-08T07:21:32;25.33;;;11.17;;
72127;SDS011;60000;51.030;7.024;2024-03-08T07:23:57;24.58;;;10.60;;
72127;SDS011;60000;51.030;7.024;2024-03-08T07:26:25;25.63;;;10.63;;
72127;SDS011;60000;51.030;7.024;2024-03-08T07:28:51;23.10;;;10.65;;
72127;SDS011;60000;51.030;7.024;2024-03-08T07:31:16;24.83;;;10.67;;
72127;SDS011;60000;51.030;7.024;2024-03-08T07:33:51;20.95;;;10.48;;
72127;SDS011;60000;51.030;7.024;2024-03-08T07:36:18;23.67;;;10.20;;
72127;SDS011;60000;51.030;7.024;2024-03-08T07:38:43;23.50;;;11.13;;
72127;SDS011;60000;51.030;7.024;2024-03-08T07:41:11;22.65;;;10.32;;
72127;SDS011;60000;51.030;7.024;2024-03-08T07:43:37;23.38;;;10.57;;
72127;SDS011;60000;51.030;7.024;2024-03-08T07:46:03;20.47;;;9.67;;
72127;SDS011;60000;51.030;7.024;2024-03-08T07:48:28;21.13;;;10.10;;
72127;SDS011;60000;51.030;7.024;2024-03-08T07:50:53;25.27;;;10.87;;
72127;SDS011;60000;51.030;7.024;2024-03-08T07:53:19;20.17;;;10.17;;
72127;SDS011;60000;51.030;7.024;2024-03-08T07:55:44;25.43;;;10.97;;
72127;SDS011;60000;51.030;7.024;2024-03-08T07:58:09;22.10;;;9.80;;
72127;SDS011;60000;51.030;7.024;2024-03-08T08:00:36;23.70;;;10.57;;
72127;SDS011;60000;51.030;7.024;2024-03-08T08:03:02;20.98;;;9.98;;
72127;SDS011;60000;51.030;7.024;2024-03-08T08:05:28;21.63;;;9.93;;
72127;SDS011;60000;51.030;7.024;2024-03-08T08:07:53;20.57;;;9.77;;
72127;SDS011;60000;51.030;7.024;2024-03-08T08:10:19;21.03;;;10.20;;
72127;SDS011;60000;51.030;7.024;2024-03-08T08:12:47;19.57;;;9.90;;
72127;SDS011;60000;51.030;7.024;2024-03-08T08:15:13;19.13;;;9.82;;
72127;SDS011;60000;51.030;7.024;2024-03-08T08:17:40;19.63;;;9.68;;
72127;SDS011;60000;51.030;7.024;2024-03-08T08:20:10;20.48;;;9.77;;
72127;SDS011;60000;51.030;7.024;2024-03-08T08:22:36;24.35;;;10.90;;
72127;SDS011;60000;51.030;7.024;2024-03-08T08:25:05;22.90;;;9.93;;
72127;SDS011;60000;51.030;7.024;2024-03-08T08:27:31;20.30;;;9.77;;
72127;SDS011;60000;51.030;7.024;2024-03-08T08:29:57;20.77;;;9.53;;
72127;SDS011;60000;51.030;7.024;2024-03-08T08:32:22;20.23;;;9.48;;
72127;SDS011;60000;51.030;7.024;2024-03-08T08:34:47;22.63;;;10.25;;
72127;SDS011;60000;51.030;7.024;2024-03-08T08:37:13;21.30;;;9.63;;
72127;SDS011;60000;51.030;7.024;2024-03-08T08:39:38;21.17;;;10.17;;
72127;SDS011;60000;51.030;7.024;2024-03-08T08:42:04;22.10;;;10.57;;
72127;SDS011;60000;51.030;7.024;2024-03-08T08:44:29;20.90;;;10.63;;
72127;SDS011;60000;51.030;7.024;2024-03-08T08:46:56;20.40;;;10.17;;
72127;SDS011;60000;51.030;7.024;2024-03-08T08:49:22;21.40;;;9.65;;
72127;SDS011;60000;51.030;7.024;2024-03-08T08:51:52;21.33;;;9.85;;
72127;SDS011;60000;51.030;7.024;2024-03-08T08:54:17;19.48;;;10.30;;
72127;SDS011;60000;51.030;7.024;2024-03-08T08:56:43;19.57;;;9.50;;
72127;SDS011;60000;51.030;7.024;2024-03-08T08:59:09;18.60;;;9.50;;
72127;SDS011;60000;51.030;7.024;2024-03-08T09:01:47;16.85;;;8.95;;
72127;SDS011;60000;51.030;7.024;2024-03-08T09:04:15;21.20;;;9.80;;
72127;SDS011;60000;51.030;7.024;2024-03-08T09:06:41;17.65;;;9.23;;
72127;SDS011;60000;51.030;7.024;2024-03-08T09:09:06;18.87;;;9.30;;
72127;SDS011;60000;51.030;7.024;2024-03-08T09:11:35;18.10;;;9.50;;
72127;SDS011;60000;51.030;7.024;2024-03-08T09:14:03;20.35;;;10.15;;
72127;SDS011;60000;51.030;7.024;2024-03-08T09:16:30;17.17;;;8.77;;
72127;SDS011;60000;51.030;7.024;2024-03-08T09:18:56;17.50;;;8.98;;
72127;SDS011;60000;51.030;7.024;2024-03-08T09:21:22;18.33;;;9.27;;
72127;SDS011;60000;51.030;7.024;2024-03-08T09:23:47;16.75;;;8.95;;
72127;SDS011;60000;51.030;7.024;2024-03-08T09:26:12;16.93;;;8.50;;
72127;SDS011;60000;51.030;7.024;2024-03-08T09:28:40;17.57;;;8.87;;
72127;SDS011;60000;51.030;7.024;2024-03-08T09:31:05;17.80;;;9.15;;
72127;SDS011;60000;51.030;7.024;2024-03-08T09:33:30;16.67;;;8.40;;
72127;SDS011;60000;51.030;7.024;2024-03-08T09:35:56;17.37;;;9.30;;
72127;SDS011;60000;51.030;7.024;2024-03-08T09:38:22;16.88;;;9.10;;
72127;SDS011;60000;51.030;7.024;2024-03-08T09:40:49;14.50;;;7.80;;
72127;SDS011;60000;51.030;7.024;2024-03-08T09:43:15;18.30;;;9.23;;
72127;SDS011;60000;51.030;7.024;2024-03-08T09:45:41;17.25;;;8.88;;
72127;SDS011;60000;51.030;7.024;2024-03-08T09:48:10;17.90;;;8.73;;
72127;SDS011;60000;51.030;7.024;2024-03-08T09:50:40;16.73;;;8.60;;
72127;SDS011;60000;51.030;7.024;2024-03-08T09:53:06;16.38;;;8.45;;
72127;SDS011;60000;51.030;7.024;2024-03-08T09:55:34;16.20;;;8.05;;
72127;SDS011;60000;51.030;7.024;2024-03-08T09:58:02;16.58;;;8.60;;
72127;SDS011;60000;51.030;7.024;2024-03-08T10:00:48;15.97;;;7.93;;
72127;SDS011;60000;51.030;7.024;2024-03-08T10:03:13;15.47;;;8.20;;
72127;SDS011;60000;51.030;7.024;2024-03-08T10:05:41;17.65;;;8.77;;
72127;SDS011;60000;51.030;7.024;2024-03-08T10:08:08;13.80;;;7.30;;
72127;SDS011;60000;51.030;7.024;2024-03-08T10:10:34;14.93;;;8.30;;
72127;SDS011;60000;51.030;7.024;2024-03-08T10:13:00;14.23;;;8.27;;
72127;SDS011;60000;51.030;7.024;2024-03-08T10:15:28;14.77;;;8.20;;
72127;SDS011;60000;51.030;7.024;2024-03-08T10:17:55;18.33;;;8.88;;
72127;SDS011;60000;51.030;7.024;2024-03-08T10:20:21;14.13;;;7.88;;
72127;SDS011;60000;51.030;7.024;2024-03-08T10:22:46;18.17;;;8.57;;
72127;SDS011;60000;51.030;7.024;2024-03-08T10:25:12;14.30;;;7.10;;
72127;SDS011;60000;51.030;7.024;2024-03-08T10:27:38;16.23;;;7.82;;
72127;SDS011;60000;51.030;7.024;2024-03-08T10:30:05;15.95;;;7.88;;
72127;SDS011;60000;51.030;7.024;2024-03-08T10:32:31;14.15;;;7.93;;
72127;SDS011;60000;51.030;7.024;2024-03-08T10:34:57;14.97;;;8.10;;
72127;SDS011;60000;51.030;7.024;2024-03-08T10:37:22;16.43;;;8.13;;
72127;SDS011;60000;51.030;7.024;2024-03-08T10:39:53;14.75;;;7.80;;
72127;SDS011;60000;51.030;7.024;2024-03-08T10:42:35;13.95;;;7.25;;
72127;SDS011;60000;51.030;7.024;2024-03-08T10:45:15;13.33;;;7.40;;
72127;SDS011;60000;51.030;7.024;2024-03-08T10:47:46;13.88;;;7.07;;
72127;SDS011;60000;51.030;7.024;2024-03-08T10:50:19;13.45;;;7.00;;
72127;SDS011;60000;51.030;7.024;2024-03-08T10:52:50;14.07;;;7.32;;
72127;SDS011;60000;51.030;7.024;2024-03-08T10:55:17;15.63;;;7.10;;
72127;SDS011;60000;51.030;7.024;2024-03-08T10:57:45;14.03;;;7.10;;
72127;SDS011;60000;51.030;7.024;2024-03-08T11:00:11;13.13;;;7.03;;
72127;SDS011;60000;51.030;7.024;2024-03-08T11:02:38;15.05;;;7.22;;
72127;SDS011;60000;51.030;7.024;2024-03-08T11:05:04;14.53;;;7.40;;
72127;SDS011;60000;51.030;7.024;2024-03-08T11:07:33;13.10;;;6.97;;
72127;SDS011;60000;51.030;7.024;2024-03-08T11:10:02;13.15;;;6.97;;
72127;SDS011;60000;51.030;7.024;2024-03-08T11:12:35;12.60;;;6.80;;
72127;SDS011;60000;51.030;7.024;2024-03-08T11:15:02;13.17;;;7.07;;
72127;SDS011;60000;51.030;7.024;2024-03-08T11:17:40;13.70;;;6.63;;
72127;SDS011;60000;51.030;7.024;2024-03-08T11:20:10;12.85;;;6.70;;
72127;SDS011;60000;51.030;7.024;2024-03-08T11:22:52;12.98;;;6.47;;
72127;SDS011;60000;51.030;7.024;2024-03-08T11:28:09;12.23;;;6.60;;
72127;SDS011;60000;51.030;7.024;2024-03-08T11:30:43;12.73;;;6.80;;
72127;SDS011;60000;51.030;7.024;2024-03-08T11:33:34;14.50;;;6.90;;
72127;SDS011;60000;51.030;7.024;2024-03-08T11:38:39;11.93;;;6.53;;
72127;SDS011;60000;51.030;7.024;2024-03-08T11:41:05;14.70;;;6.40;;
72127;SDS011;60000;51.030;7.024;2024-03-08T11:43:31;12.73;;;6.95;;
72127;SDS011;60000;51.030;7.024;2024-03-08T11:46:15;13.80;;;7.23;;
72127;SDS011;60000;51.030;7.024;2024-03-08T11:48:41;14.63;;;7.07;;
72127;SDS011;60000;51.030;7.024;2024-03-08T11:51:09;11.00;;;5.95;;
72127;SDS011;60000;51.030;7.024;2024-03-08T11:53:40;13.53;;;6.57;;
72127;SDS011;60000;51.030;7.024;2024-03-08T11:56:08;13.60;;;6.97;;
72127;SDS011;60000;51.030;7.024;2024-03-08T11:58:36;13.02;;;6.60;;
72127;SDS011;60000;51.030;7.024;2024-03-08T12:01:03;12.82;;;7.07;;
72127;SDS011;60000;51.030;7.024;2024-03-08T12:03:38;14.07;;;6.72;;
72127;SDS011;60000;51.030;7.024;2024-03-08T12:06:04;11.77;;;5.85;;
72127;SDS011;60000;51.030;7.024;2024-03-08T12:08:32;15.50;;;6.90;;
72127;SDS011;60000;51.030;7.024;2024-03-08T12:10:58;13.93;;;6.57;;
72127;SDS011;60000;51.030;7.024;2024-03-08T12:13:32;14.15;;;6.40;;
72127;SDS011;60000;51.030;7.024;2024-03-08T12:15:59;14.13;;;6.30;;
72127;SDS011;60000;51.030;7.024;2024-03-08T12:18:32;11.27;;;6.18;;
72127;SDS011;60000;51.030;7.024;2024-03-08T12:21:08;10.70;;;5.30;;
72127;SDS011;60000;51.030;7.024;2024-03-08T12:23:39;11.98;;;5.63;;
72127;SDS011;60000;51.030;7.024;2024-03-08T12:26:14;10.85;;;5.65;;
72127;SDS011;60000;51.030;7.024;2024-03-08T12:28:41;13.97;;;6.47;;
72127;SDS011;60000;51.030;7.024;2024-03-08T12:31:09;11.88;;;6.07;;
72127;SDS011;60000;51.030;7.024;2024-03-08T12:34:00;11.30;;;5.68;;
72127;SDS011;60000;51.030;7.024;2024-03-08T12:36:24;11.40;;;5.75;;
72127;SDS011;60000;51.030;7.024;2024-03-08T12:38:50;11.93;;;6.07;;
72127;SDS011;60000;51.030;7.024;2024-03-08T12:41:16;10.93;;;5.47;;
72127;SDS011;60000;51.030;7.024;2024-03-08T12:43:44;13.32;;;6.00;;
72127;SDS011;60000;51.030;7.024;2024-03-08T12:46:22;12.38;;;6.38;;
72127;SDS011;60000;51.030;7.024;2024-03-08T12:48:51;12.38;;;5.75;;
72127;SDS011;60000;51.030;7.024;2024-03-08T12:51:18;10.43;;;5.32;;
72127;SDS011;60000;51.030;7.024;2024-03-08T12:53:45;13.53;;;6.23;;
72127;SDS011;60000;51.030;7.024;2024-03-08T12:56:11;15.50;;;5.93;;
72127;SDS011;60000;51.030;7.024;2024-03-08T12:58:37;11.18;;;5.78;;
72127;SDS011;60000;51.030;7.024;2024-03-08T13:01:04;12.13;;;5.97;;
72127;SDS011;60000;51.030;7.024;2024-03-08T13:03:33;11.75;;;6.15;;
72127;SDS011;60000;51.030;7.024;2024-03-08T13:06:00;11.38;;;5.72;;
72127;SDS011;60000;51.030;7.024;2024-03-08T13:08:29;10.70;;;5.70;;
72127;SDS011;60000;51.030;7.024;2024-03-08T13:10:56;12.10;;;6.00;;
72127;SDS011;60000;51.030;7.024;2024-03-08T13:13:21;10.90;;;5.50;;
72127;SDS011;60000;51.030;7.024;2024-03-08T13:15:47;13.48;;;6.05;;
72127;SDS011;60000;51.030;7.024;2024-03-08T13:18:13;12.02;;;6.07;;
72127;SDS011;60000;51.030;7.024;2024-03-08T13:20:40;13.20;;;5.60;;
72127;SDS011;60000;51.030;7.024;2024-03-08T13:23:08;10.88;;;5.53;;
72127;SDS011;60000;51.030;7.024;2024-03-08T13:25:34;11.93;;;5.50;;
72127;SDS011;60000;51.030;7.024;2024-03-08T13:27:59;12.95;;;5.72;;
72127;SDS011;60000;51.030;7.024;2024-03-08T13:30:25;12.63;;;6.28;;
72127;SDS011;60000;51.030;7.024;2024-03-08T13:32:54;13.65;;;6.68;;
72127;SDS011;60000;51.030;7.024;2024-03-08T13:35:20;11.75;;;5.80;;
72127;SDS011;60000;51.030;7.024;2024-03-08T13:37:49;11.70;;;5.93;;
72127;SDS011;60000;51.030;7.024;2024-03-08T13:40:16;11.77;;;5.73;;
72127;SDS011;60000;51.030;7.024;2024-03-08T13:42:48;11.50;;;6.05;;
72127;SDS011;60000;51.030;7.024;2024-03-08T13:45:16;10.77;;;5.70;;
72127;SDS011;60000;51.030;7.024;2024-03-08T13:47:48;12.18;;;6.57;;
72127;SDS011;60000;51.030;7.024;2024-03-08T13:50:16;12.90;;;5.80;;
72127;SDS011;60000;51.030;7.024;2024-03-08T13:52:46;12.93;;;6.97;;
72127;SDS011;60000;51.030;7.024;2024-03-08T13:55:19;13.30;;;6.72;;
72127;SDS011;60000;51.030;7.024;2024-03-08T13:57:47;13.32;;;6.50;;
72127;SDS011;60000;51.030;7.024;2024-03-08T14:00:13;13.95;;;6.60;;
72127;SDS011;60000;51.030;7.024;2024-03-08T14:02:39;13.35;;;6.93;;
72127;SDS011;60000;51.030;7.024;2024-03-08T14:05:05;13.47;;;6.77;;
72127;SDS011;60000;51.030;7.024;2024-03-08T14:07:33;13.15;;;7.22;;
72127;SDS011;60000;51.030;7.024;2024-03-08T14:09:59;13.38;;;6.28;;
72127;SDS011;60000;51.030;7.024;2024-03-08T14:12:24;18.47;;;7.33;;
72127;SDS011;60000;51.030;7.024;2024-03-08T14:14:51;13.23;;;7.00;;
72127;SDS011;60000;51.030;7.024;2024-03-08T14:17:17;14.17;;;6.70;;
72127;SDS011;60000;51.030;7.024;2024-03-08T14:19:43;13.65;;;6.85;;
72127;SDS011;60000;51.030;7.024;2024-03-08T14:22:08;13.43;;;6.47;;
72127;SDS011;60000;51.030;7.024;2024-03-08T14:24:38;14.07;;;7.20;;
72127;SDS011;60000;51.030;7.024;2024-03-08T14:27:04;15.10;;;7.50;;
72127;SDS011;60000;51.030;7.024;2024-03-08T14:29:33;15.30;;;7.13;;
72127;SDS011;60000;51.030;7.024;2024-03-08T14:31:58;13.82;;;6.75;;
72127;SDS011;60000;51.030;7.024;2024-03-08T14:34:27;13.77;;;6.83;;
72127;SDS011;60000;51.030;7.024;2024-03-08T14:36:54;13.90;;;6.43;;